Latest Coastal Weather Observations for Yanakie

IDV60701

Issued at 3:32 pm EST Sunday 26 June 2022 (issued every 10 minutes, with the page automatically refreshed every 10 minutes)

About coastal observations | Map of coastal stations | Coastal observations for VIC | Marine services | Other Formats
Station Details ID: 085301 Name: YANAKIE Lat: -38.81 Lon: 146.19 Height: 13.3 m
Data from the previous 72 hours. | See also: Recent months at Yanakie
Date/Time
EST
Wind Sea
Height
m
Swell Vis
km
Cloud Weather Temp
°C
Press
MSL
hPa
Rain since
9am
mm
Dir  Spd
kts
Gust
kts
Height
m
Period
s
Dir
26/03:30pm WSW 10 13 - - - - - - - 11.6 1022.6 1.0
26/03:00pm WSW 9 13 - - - - - - - 11.9 1022.2 1.0
26/02:30pm WSW 13 16 - - - - - - - 12.0 1022.0 1.0
26/02:00pm WSW 11 15 - - - - - - - 12.4 1021.9 1.0
26/01:30pm WSW 11 15 - - - - - - - 12.3 1022.0 1.0
26/01:00pm WSW 10 13 - - - - - - - 12.5 1021.8 1.0
26/12:30pm WSW 11 15 - - - - - - - 12.6 1022.0 1.0
26/12:00pm WSW 9 12 - - - - - - - 12.8 1022.1 1.0
26/11:30am WSW 11 13 - - - - - - - 12.5 1022.0 1.0
26/11:00am W 7 9 - - - - - - - 12.0 1022.1 1.0
26/10:30am WNW 6 8 - - - - - - - 11.3 1022.2 0.8
26/10:00am W 8 11 - - - - - - - 10.5 1021.9 0.8
26/09:30am W 9 11 - - - - - - - 10.1 1021.7 0.2
26/09:00am WSW 12 19 - - - - - - Rain 10.0 1021.6 5.0
26/08:30am W 11 13 - - - - - - - 10.4 1021.2 2.6
26/08:00am W 14 19 - - - - - - - 10.3 1020.7 1.8
26/07:30am NW 15 21 - - - - - - - 11.5 1020.1 0.0
26/07:00am NW 15 21 - - - - - - - 11.3 1019.8 0.0
26/06:30am NW 15 19 - - - - - - - 11.1 1019.4 0.0
26/06:00am NW 16 20 - - - - - - - 10.9 1018.7 0.0
26/05:30am NW 16 21 - - - - - - - 11.0 1018.5 0.0
26/05:00am NW 16 23 - - - - - - - 11.1 1018.3 0.0
26/04:30am NW 17 24 - - - - - - - 11.3 1018.1 0.0
26/04:22am WNW 17 27 - - - - - - - 11.4 1018.1 0.0
26/04:00am WNW 17 24 - - - - - - - 11.7 1018.1 0.0
26/03:30am NW 16 22 - - - - - - - 11.7 1018.0 0.0
26/03:00am WNW 17 25 - - - - - - - 11.7 1018.1 0.0
26/02:30am NW 17 26 - - - - - - - 12.2 1017.9 0.0
26/02:08am NW 18 29 - - - - - - - 12.4 1017.8 0.0
26/02:00am NW 17 24 - - - - - - - 12.0 1018.0 0.0
26/01:30am NW 15 21 - - - - - - - 12.1 1018.1 0.0
26/01:00am NW 17 24 - - - - - - - 12.3 1017.9 0.0
26/12:30am NW 17 24 - - - - - - - 12.1 1017.7 0.0
26/12:00am NW 15 21 - - - - - - - 12.1 1017.7 0.0
 
Date/Time
EST
Wind Sea
Height
m
Swell Vis
km
Cloud Weather Temp
°C
Press
MSL
hPa
Rain since
9am
mm
Dir  Spd
kts
Gust
kts
Height
m
Period
s
Dir
25/11:37pm NW 16 27 - - - - - - - 12.3 1017.7 0.0
25/11:30pm NW 18 27 - - - - - - - 12.4 1017.7 0.0
25/11:12pm NW 17 29 - - - - - - - 12.6 1017.7 0.0
25/11:00pm NW 16 25 - - - - - - - 12.6 1017.8 0.0
25/10:30pm NW 13 21 - - - - - - - 12.7 1017.9 0.0
25/10:00pm NW 15 23 - - - - - - - 12.5 1017.9 0.0
25/09:30pm NNW 12 20 - - - - - - - 12.9 1018.1 0.0
25/09:00pm NW 15 22 - - - - - - - 12.6 1018.0 0.0
25/08:30pm NNW 14 22 - - - - - - - 12.3 1018.0 0.0
25/08:00pm NW 13 17 - - - - - - - 12.4 1018.0 0.0
25/07:30pm NW 11 16 - - - - - - - 11.8 1017.9 0.0
25/07:00pm NW 11 15 - - - - - - - 12.2 1017.4 0.0
25/06:30pm NW 11 15 - - - - - - - 12.2 1017.2 0.0
25/06:00pm NW 11 15 - - - - - - - 12.7 1017.2 0.0
25/05:30pm NW 11 15 - - - - - - - 12.8 1017.0 0.0
25/05:00pm NW 13 20 - - - - - - - 12.8 1016.9 0.0
25/04:30pm NW 14 20 - - - - - - - 13.4 1016.8 0.0
25/04:00pm NW 15 20 - - - - - - - 13.4 1016.8 0.0
25/03:35pm NW 17 27 - - - - - - - 13.8 1016.8 0.0
25/03:30pm NW 19 27 - - - - - - - 14.1 1016.7 0.0
25/03:00pm NW 17 26 - - - - - - - 14.0 1016.5 0.0
25/02:30pm NW 17 25 - - - - - - - 14.5 1016.5 0.0
25/02:00pm WNW 19 29 - - - - - - - 14.3 1016.5 0.0
25/01:50pm NW 19 29 - - - - - - - 14.3 1016.7 0.0
25/01:30pm NW 20 27 - - - - - - - 14.3 1016.7 0.0
25/01:00pm NW 21 28 - - - - - - - 14.3 1016.6 0.0
25/12:30pm NW 20 27 - - - - - - - 14.1 1016.6 0.0
25/12:00pm NW 22 28 - - - - - - - 13.9 1016.8 0.0
25/11:30am NW 19 27 - - - - - - - 13.8 1017.1 0.0
25/11:00am NW 19 26 - - - - - - - 13.1 1017.3 0.0
25/10:30am NW 17 22 - - - - - - - 12.9 1017.5 0.0
25/10:00am NW 16 22 - - - - - - - 12.3 1017.4 0.0
25/09:30am NW 16 22 - - - - - - - 12.0 1017.2 0.0
25/09:00am NW 15 19 - - - - - - - 11.3 1017.1 2.0
25/08:30am NW 14 20 - - - - - - - 10.9 1016.9 2.0
25/08:00am NW 14 19 - - - - - - - 10.3 1016.7 2.0
25/07:30am NW 12 17 - - - - - - - 9.9 1016.7 2.0
25/07:00am NW 11 14 - - - - - - - 9.9 1016.5 2.0
25/06:30am NW 13 19 - - - - - - - 9.8 1016.1 2.0
25/06:00am NW 13 17 - - - - - - - 9.9 1015.9 2.0
25/05:30am NW 12 18 - - - - - - - 9.6 1015.7 2.0
25/05:00am NW 12 19 - - - - - - - 9.8 1015.4 2.0
25/04:30am NW 11 15 - - - - - - - 9.5 1015.1 2.0
25/04:00am NW 9 12 - - - - - - - 9.4 1015.1 2.0
25/03:30am NW 9 11 - - - - - - - 9.4 1015.2 2.0
25/03:00am NW 9 13 - - - - - - - 9.3 1015.5 2.0
25/02:30am NW 10 14 - - - - - - - 9.7 1015.6 2.0
25/02:00am NW 10 12 - - - - - - - 9.6 1015.6 2.0
25/01:30am NW 9 11 - - - - - - - 9.7 1015.5 2.0
25/01:00am NW 7 9 - - - - - - - 9.5 1015.5 2.0
25/12:30am NW 6 8 - - - - - - - 8.9 1015.8 2.0
25/12:00am NW 4 6 - - - - - - Recent precip. 8.8 1015.9 2.0
 
Date/Time
EST
Wind Sea
Height
m
Swell Vis
km
Cloud Weather Temp
°C
Press
MSL
hPa
Rain since
9am
mm
Dir  Spd
kts
Gust
kts
Height
m
Period
s
Dir
24/11:30pm NW 4 6 - - - - - - - 9.1 1016.1 2.0
24/11:00pm NW 6 9 - - - - - - - 9.3 1015.9 1.8
24/10:30pm NW 4 6 - - - - - - - 9.4 1015.8 1.8
24/10:00pm NW 7 9 - - - - - - - 10.2 1015.9 1.8
24/09:30pm WNW 5 7 - - - - - - - 9.9 1016.0 1.8
24/09:00pm WNW 5 7 - - - - - - - 9.8 1015.9 1.8
24/08:30pm WNW 6 9 - - - - - - - 10.6 1015.9 1.8
24/08:00pm WNW 5 8 - - - - - - - 10.3 1015.8 1.8
24/07:30pm WNW 6 9 - - - - - - - 10.6 1015.7 1.8
24/07:00pm WNW 10 14 - - - - - - - 10.8 1015.5 1.8
24/06:30pm W 8 13 - - - - - - - 11.3 1015.2 1.6
24/06:00pm WNW 11 15 - - - - - - Recent precip. 11.3 1014.7 1.6
24/05:45pm W 15 20 - - - - - - - 11.2 1014.6 1.6
24/05:30pm W 7 9 - - - - - - - 11.5 1014.6 1.4
24/05:00pm WNW 8 12 - - - - - - - 11.2 1014.3 1.4
24/04:30pm WNW 11 15 - - - - - - - 11.5 1014.0 1.4
24/04:00pm WNW 16 21 - - - - - - - 11.4 1013.8 1.4
24/03:30pm WNW 14 19 - - - - - - - 12.8 1013.4 1.2
24/03:00pm WNW 17 23 - - - - - - - 13.4 1013.3 1.2
24/02:30pm WNW 16 22 - - - - - - - 12.7 1013.1 1.2
24/02:00pm WNW 17 22 - - - - - - - 13.2 1013.0 1.2
24/01:30pm WNW 14 18 - - - - - - - 12.7 1013.2 1.2
24/01:00pm W 19 24 - - - - - - - 12.7 1013.1 1.2
24/12:44pm W 17 29 - - - - - - - 13.2 1013.0 1.2
24/12:30pm WNW 17 21 - - - - - - - 14.2 1013.0 0.0
24/12:00pm W 16 24 - - - - - - - 13.6 1013.0 0.0
24/11:30am WNW 16 25 - - - - - - - 13.9 1012.9 0.0
24/11:29am WNW 15 25 - - - - - - - 13.9 1012.9 0.0
24/11:00am WNW 16 21 - - - - - - - 13.1 1012.9 0.0
24/10:30am WNW 16 22 - - - - - - - 12.8 1013.0 0.0
24/10:00am WNW 16 23 - - - - - - - 12.8 1012.7 0.0
24/09:30am NW 16 22 - - - - - - - 12.9 1012.2 0.0
24/09:00am NW 17 24 - - - - - - Recent precip. 12.4 1012.1 2.8
24/08:30am WNW 14 20 - - - - - - - 12.1 1012.0 2.8
24/08:00am NW 14 20 - - - - - - - 11.9 1011.7 2.6
24/07:30am NW 15 20 - - - - - - - 12.2 1011.4 2.6
24/07:00am NW 12 17 - - - - - - - 12.2 1011.2 2.6
24/06:30am NW 13 19 - - - - - - - 12.3 1010.9 2.6
24/06:00am NW 13 18 - - - - - - Recent precip. 12.2 1010.5 2.6
24/05:30am NW 12 16 - - - - - - - 12.1 1010.2 2.6
24/05:00am NW 14 18 - - - - - - - 12.4 1009.9 1.8
24/04:30am NW 14 19 - - - - - - - 12.6 1009.8 1.2
24/04:00am NW 16 24 - - - - - - - 13.3 1009.6 0.6
24/03:30am NW 17 26 - - - - - - - 13.8 1009.5 0.2
24/03:00am NW 22 32 - - - - - - - 14.8 1009.5 0.0
24/02:48am NW 20 31 - - - - - - - 14.9 1009.4 0.0
24/02:30am NW 21 30 - - - - - - - 15.0 1009.6 0.0
24/02:29am NW 20 30 - - - - - - - 15.1 1009.6 0.0
24/02:00am NW 20 29 - - - - - - - 14.9 1009.8 0.0
24/01:45am NW 22 32 - - - - - - - 14.9 1009.3 0.0
24/01:30am NW 22 32 - - - - - - - 15.1 1009.1 0.0
24/01:00am NW 21 32 - - - - - - - 14.9 1009.6 0.0
24/12:30am NW 18 29 - - - - - - - 14.6 1010.2 0.0
24/12:07am NW 21 31 - - - - - - - 14.9 1010.2 0.0
24/12:00am NW 20 28 - - - - - - - 14.7 1010.4 0.0
 
Date/Time
EST
Wind Sea
Height
m
Swell Vis
km
Cloud Weather Temp
°C
Press
MSL
hPa
Rain since
9am
mm
Dir  Spd
kts
Gust
kts
Height
m
Period
s
Dir
23/11:30pm NW 20 31 - - - - - - - 14.8 1010.7 0.0
23/11:00pm NW 20 31 - - - - - - - 14.5 1011.1 0.0
23/10:43pm NW 17 27 - - - - - - - 14.4 1011.3 0.0
23/10:30pm NW 17 27 - - - - - - - 14.3 1011.5 0.0
23/10:00pm NW 17 22 - - - - - - - 14.4 1011.9 0.0
23/09:30pm NW 15 22 - - - - - - - 14.1 1012.3 0.0
23/09:00pm NW 15 22 - - - - - - - 14.2 1012.7 0.0
23/08:30pm NW 14 19 - - - - - - - 13.9 1013.1 0.0
23/08:00pm NW 17 25 - - - - - - - 14.0 1013.3 0.0
23/07:30pm NW 17 23 - - - - - - - 14.0 1013.4 0.0
23/07:00pm NW 16 23 - - - - - - - 13.9 1013.6 0.0
23/06:30pm NW 12 18 - - - - - - - 13.8 1013.9 0.0
23/06:00pm NNW 13 18 - - - - - - - 13.9 1014.1 0.0
23/05:30pm NW 12 17 - - - - - - - 13.8 1014.2 0.0
23/05:00pm NW 13 22 - - - - - - - 13.9 1014.4 0.0
23/04:30pm NNW 12 18 - - - - - - - 14.3 1014.4 0.0
23/04:00pm NNW 11 16 - - - - - - - 14.5 1014.8 0.0

Other formats

Comma delimited format used in spreadsheet applications
http://www.bom.gov.au/fwo/IDV60701/IDV60701.94911.axf

JavaScript Object Notation format (JSON) in row-major order
http://www.bom.gov.au/fwo/IDV60701/IDV60701.94911.json

Data quality

Most of these data are generated automatically and are frequently updated. Quality checks on data are not normally performed. It is possible for incorrect values to appear. Refer to information at About Latest Weather Observations and please check the disclaimer before using these data.